Terminal Aerodrome Forecast
Issued by NWS

Home | Current Version | Previous Version | Text Only | Print | Product List | Glossary On
Versions: 1 2 3 4 5 6 7 8 9 10 11 12 13 14
000
FTUS46 KSEW 231730
TAFCLM
TAF
KCLM 231730Z 2318/2418 VRB05KT P6SM SKC
     FM232200 29013G20KT P6SM SCT030 SCT250
     FM240900 28008KT P6SM OVC013=

USA.gov is the U.S. government's official web portal to all federal, state and local government web resources and services.